createdAt,value
2022-07-30T00:05:17.489Z,1019.2
2022-07-30T00:10:57.632Z,1019.4
2022-07-30T00:16:38.375Z,1019.6
2022-07-30T00:22:19.121Z,1019.7
2022-07-30T00:27:59.411Z,1019.7
2022-07-30T00:33:39.329Z,1019.9
2022-07-30T00:39:19.583Z,1020
2022-07-30T00:44:59.523Z,1020
2022-07-30T00:50:39.545Z,1020.1
2022-07-30T00:56:19.565Z,1020.2
2022-07-30T01:02:00.023Z,1020.1
2022-07-30T01:07:40.927Z,1020.2
2022-07-30T01:13:20.943Z,1020.4
2022-07-30T01:19:00.994Z,1020.5
2022-07-30T01:24:41.129Z,1020.7
2022-07-30T01:30:21.286Z,1020.8
2022-07-30T01:36:01.497Z,1020.9
2022-07-30T01:41:42.025Z,1021
2022-07-30T01:47:22.009Z,1021.1
2022-07-30T01:53:02.028Z,1021.3
2022-07-30T01:58:42.199Z,1021.5
2022-07-30T02:04:22.519Z,1021.6
2022-07-30T02:10:02.801Z,1021.8
2022-07-30T02:15:43.157Z,1021.8
2022-07-30T02:21:37.122Z,1021.8
2022-07-30T02:27:17.565Z,1021.9
2022-07-30T02:32:57.751Z,1021.9
2022-07-30T02:38:38.224Z,1022.1
2022-07-30T02:44:18.476Z,1022.3
2022-07-30T02:49:58.605Z,1022.4
2022-07-30T02:55:40.326Z,1022.4
2022-07-30T03:01:20.907Z,1022.6
2022-07-30T03:07:09.403Z,1022.6
2022-07-30T03:12:51.767Z,1022.6
2022-07-30T03:18:32.454Z,1022.7
2022-07-30T03:24:12.848Z,1022.8
2022-07-30T03:29:53.093Z,1022.9
2022-07-30T03:35:33.831Z,1023.1
2022-07-30T03:41:14.219Z,1023.2
2022-07-30T03:46:55.210Z,1023.4
2022-07-30T03:52:41.555Z,1023.5
2022-07-30T03:58:21.902Z,1023.5
2022-07-30T04:04:02.341Z,1023.6
2022-07-30T04:09:43.176Z,1023.6
2022-07-30T04:16:42.551Z,1023.8
2022-07-30T04:22:25.702Z,1023.8
2022-07-30T04:28:05.713Z,1023.8
2022-07-30T04:33:45.697Z,1023.9
2022-07-30T04:39:25.983Z,1024
2022-07-30T04:45:06.235Z,1024.2
2022-07-30T04:50:46.736Z,1024.2
2022-07-30T04:56:27.026Z,1024.4
2022-07-30T05:02:07.793Z,1024.5
2022-07-30T05:07:48.454Z,1024.6
2022-07-30T05:13:38.852Z,1024.7
2022-07-30T05:19:27.198Z,1024.8
2022-07-30T05:25:16.711Z,1024.9
2022-07-30T05:30:59.061Z,1024.9
2022-07-30T05:36:41.347Z,1025
2022-07-30T05:42:21.448Z,1025.2
2022-07-30T05:48:01.829Z,1025.2
2022-07-30T05:53:42.002Z,1025.4
2022-07-30T05:59:22.011Z,1025.5
2022-07-30T06:05:02.514Z,1025.5
2022-07-30T06:10:43.875Z,1025.4
2022-07-30T06:16:24.452Z,1025.5
2022-07-30T06:22:07.520Z,1025.5
2022-07-30T06:27:49.083Z,1025.6
2022-07-30T06:33:29.429Z,1025.6
2022-07-30T06:39:09.885Z,1025.6
2022-07-30T06:44:50.192Z,1025.7
2022-07-30T06:50:30.433Z,1025.7
2022-07-30T06:56:10.656Z,1025.7
2022-07-30T07:01:51.257Z,1025.7
2022-07-30T07:07:59.032Z,1025.6
2022-07-30T07:13:40.857Z,1025.3
2022-07-30T07:20:03.041Z,1024.3
2022-07-30T07:25:46.077Z,1020.8
2022-07-30T07:32:08.514Z,1020.5
2022-07-30T07:37:49.459Z,1020.8
2022-07-30T07:43:29.924Z,1020.9
2022-07-30T07:49:11.440Z,1020.2
2022-07-30T07:54:51.869Z,1020.7
2022-07-30T08:00:34.265Z,1020.2
2022-07-30T08:06:16.028Z,1019.6
2022-07-30T08:11:56.391Z,1019.6
2022-07-30T08:17:35.631Z,1019.6
2022-07-30T08:23:20.069Z,1019.5
2022-07-30T08:29:01.851Z,1019.5
2022-07-30T08:34:42.383Z,1019.4
2022-07-30T08:40:22.110Z,1019.6
2022-07-30T08:46:01.973Z,1019.5
2022-07-30T08:51:43.719Z,1019.6
2022-07-30T08:57:23.705Z,1019.5
2022-07-30T09:03:04.036Z,1019.5
2022-07-30T09:08:44.147Z,1019.6
2022-07-30T09:14:33.536Z,1019.6
2022-07-30T09:20:16.452Z,1019.7
2022-07-30T09:25:57.206Z,1019.5
2022-07-30T09:31:52.335Z,1019.5
2022-07-30T09:37:34.927Z,1019.4
2022-07-30T09:43:15.874Z,1019.4
2022-07-30T09:48:58.722Z,1019.3
2022-07-30T09:54:53.268Z,1019.4
2022-07-30T10:00:45.481Z,1019.5
2022-07-30T10:06:25.804Z,1019.4
2022-07-30T10:12:24.131Z,1019.4
2022-07-30T10:18:14.398Z,1019.4
2022-07-30T10:24:11.780Z,1019.5
2022-07-30T10:30:03.415Z,1019.5
2022-07-30T10:35:49.773Z,1019.4
2022-07-30T10:41:54.758Z,1019.4
2022-07-30T10:47:52.994Z,1019.2
2022-07-30T10:53:50.058Z,1019.4
2022-07-30T10:59:42.639Z,1019.3
2022-07-30T11:05:48.888Z,1019.2
2022-07-30T11:12:17.297Z,1019.3
2022-07-30T11:18:01.162Z,1019.2
2022-07-30T11:23:57.072Z,1019.2
2022-07-30T11:29:55.523Z,1019.2
2022-07-30T11:35:39.377Z,1019.2
2022-07-30T11:41:28.545Z,1019.2
2022-07-30T11:47:08.647Z,1019.2
2022-07-30T11:52:54.836Z,1019.1
2022-07-30T11:58:41.079Z,1019.2
2022-07-30T12:04:21.433Z,1019.1
2022-07-30T12:15:12.216Z,1019.2
2022-07-30T12:21:02.696Z,1019.1
2022-07-30T12:26:43.205Z,1019.1
2022-07-30T12:32:23.694Z,1019
2022-07-30T12:38:04.000Z,1019.1
2022-07-30T12:43:44.637Z,1019.1
2022-07-30T12:49:50.519Z,1019
2022-07-30T12:55:38.246Z,1019
2022-07-30T13:01:22.825Z,1018.9
2022-07-30T13:07:08.612Z,1019
2022-07-30T13:13:07.096Z,1019
2022-07-30T13:18:54.285Z,1018.9
2022-07-30T13:24:46.487Z,1018.8
2022-07-30T13:30:27.550Z,1018.9
2022-07-30T13:36:22.462Z,1018.9
2022-07-30T13:42:12.863Z,1018.9
2022-07-30T13:47:55.948Z,1018.9
2022-07-30T13:53:42.003Z,1018.8
2022-07-30T13:59:24.678Z,1018.7
2022-07-30T14:05:14.028Z,1018.6
2022-07-30T14:11:03.343Z,1018.7
2022-07-30T14:16:54.029Z,1018.6
2022-07-30T14:22:37.400Z,1018.6
2022-07-30T14:28:34.320Z,1018.5
2022-07-30T14:34:41.152Z,1018.5
2022-07-30T14:41:00.553Z,1018.6
2022-07-30T14:53:23.022Z,1018.5
2022-07-30T14:59:03.386Z,1018.5
2022-07-30T15:04:43.833Z,1018.6
2022-07-30T15:10:25.557Z,1018.4
2022-07-30T15:16:11.474Z,1018.5
2022-07-30T15:21:54.860Z,1018.4
2022-07-30T15:27:48.211Z,1018.4
2022-07-30T15:33:28.389Z,1018.3
2022-07-30T15:39:12.220Z,1018.4
2022-07-30T15:45:23.201Z,1018.3
2022-07-30T15:51:09.397Z,1018.4
2022-07-30T15:57:01.773Z,1018.3
2022-07-30T16:02:42.241Z,1018.3
2022-07-30T16:08:21.916Z,1018.3
2022-07-30T16:14:01.635Z,1018.3
2022-07-30T16:19:45.544Z,1018.3
2022-07-30T16:25:26.018Z,1018.2
2022-07-30T16:31:06.372Z,1018.1
2022-07-30T16:36:49.773Z,1018.2
2022-07-30T16:42:29.859Z,1018.1
2022-07-30T16:48:10.563Z,1018.1
2022-07-30T16:53:50.751Z,1018
2022-07-30T16:59:30.866Z,1018
2022-07-30T17:05:14.216Z,1018.1
2022-07-30T17:10:57.972Z,1018
2022-07-30T17:16:38.584Z,1018.1
2022-07-30T17:22:19.835Z,1018
2022-07-30T17:28:00.315Z,1018.1
2022-07-30T17:33:42.211Z,1018.1
2022-07-30T17:40:32.135Z,1018.1
2022-07-30T17:46:16.371Z,1018.1
2022-07-30T17:51:56.427Z,1018.1
2022-07-30T17:57:36.582Z,1018.1
2022-07-30T18:03:20.497Z,1018.2
2022-07-30T18:09:04.733Z,1018.2
2022-07-30T18:14:57.976Z,1018.2
2022-07-30T18:20:49.857Z,1018.2
2022-07-30T18:26:40.408Z,1018.2
2022-07-30T18:32:43.160Z,1018.3
2022-07-30T18:38:41.998Z,1018.3
2022-07-30T18:44:27.838Z,1018.3
2022-07-30T18:50:29.789Z,1018.3
2022-07-30T18:56:15.236Z,1018.2
2022-07-30T19:02:08.392Z,1018.3
2022-07-30T19:08:14.163Z,1018.3
2022-07-30T19:14:13.493Z,1018.3
2022-07-30T19:20:00.689Z,1018.4
2022-07-30T19:25:49.238Z,1018.4
2022-07-30T19:31:35.322Z,1018.4
2022-07-30T20:15:46.431Z,1018.3
2022-07-30T20:21:58.132Z,1018.5
2022-07-30T20:27:39.312Z,1018.5
2022-07-30T20:33:56.663Z,1018.5
2022-07-30T20:39:44.148Z,1018.5
2022-07-30T20:45:40.970Z,1018.4
2022-07-30T20:51:38.766Z,1018.4
2022-07-30T20:58:16.407Z,1018.5
2022-07-30T21:04:25.922Z,1018.6
2022-07-30T21:10:12.415Z,1018.7
2022-07-30T21:16:16.971Z,1018.6
2022-07-30T21:22:02.319Z,1018.6
2022-07-30T21:27:43.974Z,1018.5
2022-07-30T21:33:34.825Z,1018.5
2022-07-30T21:39:39.709Z,1018.5
2022-07-30T21:45:55.567Z,1018.5
2022-07-30T21:51:40.743Z,1018.3
2022-07-30T21:57:52.866Z,1018.3
2022-07-30T23:12:57.843Z,1018.4
2022-07-30T23:18:40.070Z,1018.2
2022-07-30T23:24:19.851Z,1018.2
2022-07-30T23:30:02.952Z,1018.2
2022-07-30T23:35:42.952Z,1018.2
2022-07-30T23:41:31.031Z,1018.1
2022-07-30T23:47:11.305Z,1018.2
2022-07-30T23:52:51.442Z,1018
2022-07-30T23:58:31.668Z,1018.1
